sensor_id;sensor_type;location;lat;lon;timestamp;P1;durP1;ratioP1;P2;durP2;ratioP2
1725;SDS011;41776;48.260;8.928;2023-07-28T00:01:09;2.60;;;1.63;;
1725;SDS011;41776;48.260;8.928;2023-07-28T00:03:35;2.85;;;1.90;;
1725;SDS011;41776;48.260;8.928;2023-07-28T00:06:02;2.60;;;1.95;;
1725;SDS011;41776;48.260;8.928;2023-07-28T00:08:31;4.55;;;2.10;;
1725;SDS011;41776;48.260;8.928;2023-07-28T00:10:57;3.15;;;2.00;;
1725;SDS011;41776;48.260;8.928;2023-07-28T00:13:32;3.75;;;2.33;;
1725;SDS011;41776;48.260;8.928;2023-07-28T00:16:03;3.38;;;2.03;;
1725;SDS011;41776;48.260;8.928;2023-07-28T00:18:35;2.33;;;1.95;;
1725;SDS011;41776;48.260;8.928;2023-07-28T00:21:04;4.93;;;2.20;;
1725;SDS011;41776;48.260;8.928;2023-07-28T00:23:34;4.60;;;2.10;;
1725;SDS011;41776;48.260;8.928;2023-07-28T00:26:05;3.22;;;2.38;;
1725;SDS011;41776;48.260;8.928;2023-07-28T00:28:32;5.25;;;1.90;;
1725;SDS011;41776;48.260;8.928;2023-07-28T00:30:59;2.90;;;2.10;;
1725;SDS011;41776;48.260;8.928;2023-07-28T00:33:26;5.07;;;1.83;;
1725;SDS011;41776;48.260;8.928;2023-07-28T00:35:55;6.72;;;2.40;;
1725;SDS011;41776;48.260;8.928;2023-07-28T00:38:21;7.30;;;2.45;;
1725;SDS011;41776;48.260;8.928;2023-07-28T00:40:53;5.03;;;1.90;;
1725;SDS011;41776;48.260;8.928;2023-07-28T00:43:19;2.78;;;2.13;;
1725;SDS011;41776;48.260;8.928;2023-07-28T00:45:45;2.22;;;1.77;;
1725;SDS011;41776;48.260;8.928;2023-07-28T00:48:12;2.35;;;2.03;;
1725;SDS011;41776;48.260;8.928;2023-07-28T00:50:42;3.47;;;2.05;;
1725;SDS011;41776;48.260;8.928;2023-07-28T00:53:24;5.93;;;2.42;;
1725;SDS011;41776;48.260;8.928;2023-07-28T00:56:00;5.93;;;2.40;;
1725;SDS011;41776;48.260;8.928;2023-07-28T00:58:27;4.35;;;2.33;;
1725;SDS011;41776;48.260;8.928;2023-07-28T01:00:54;4.18;;;2.38;;
1725;SDS011;41776;48.260;8.928;2023-07-28T01:03:21;4.40;;;2.30;;
1725;SDS011;41776;48.260;8.928;2023-07-28T01:05:53;3.15;;;2.30;;
1725;SDS011;41776;48.260;8.928;2023-07-28T01:08:27;4.50;;;1.98;;
1725;SDS011;41776;48.260;8.928;2023-07-28T01:13:44;4.88;;;2.35;;
1725;SDS011;41776;48.260;8.928;2023-07-28T01:16:13;3.28;;;2.30;;
1725;SDS011;41776;48.260;8.928;2023-07-28T01:18:40;6.38;;;2.60;;
1725;SDS011;41776;48.260;8.928;2023-07-28T01:21:16;2.80;;;2.38;;
1725;SDS011;41776;48.260;8.928;2023-07-28T01:23:50;8.68;;;2.40;;
1725;SDS011;41776;48.260;8.928;2023-07-28T01:26:28;6.30;;;2.38;;
1725;SDS011;41776;48.260;8.928;2023-07-28T01:28:57;11.88;;;2.47;;
1725;SDS011;41776;48.260;8.928;2023-07-28T01:31:25;3.60;;;2.40;;
1725;SDS011;41776;48.260;8.928;2023-07-28T01:33:51;3.25;;;2.15;;
1725;SDS011;41776;48.260;8.928;2023-07-28T01:36:18;3.60;;;2.33;;
1725;SDS011;41776;48.260;8.928;2023-07-28T01:38:45;7.35;;;2.60;;
1725;SDS011;41776;48.260;8.928;2023-07-28T01:41:11;5.65;;;2.72;;
1725;SDS011;41776;48.260;8.928;2023-07-28T01:43:41;7.47;;;2.65;;
1725;SDS011;41776;48.260;8.928;2023-07-28T01:46:08;3.97;;;2.53;;
1725;SDS011;41776;48.260;8.928;2023-07-28T01:48:35;4.90;;;2.47;;
1725;SDS011;41776;48.260;8.928;2023-07-28T01:51:04;4.15;;;2.38;;
1725;SDS011;41776;48.260;8.928;2023-07-28T01:53:30;3.08;;;2.28;;
1725;SDS011;41776;48.260;8.928;2023-07-28T01:55:57;4.85;;;2.55;;
1725;SDS011;41776;48.260;8.928;2023-07-28T01:58:25;3.83;;;2.50;;
1725;SDS011;41776;48.260;8.928;2023-07-28T02:00:53;3.53;;;2.47;;
1725;SDS011;41776;48.260;8.928;2023-07-28T02:03:20;4.95;;;2.47;;
1725;SDS011;41776;48.260;8.928;2023-07-28T02:05:47;4.50;;;2.45;;
1725;SDS011;41776;48.260;8.928;2023-07-28T02:08:16;2.70;;;2.05;;
1725;SDS011;41776;48.260;8.928;2023-07-28T02:10:45;3.85;;;2.45;;
1725;SDS011;41776;48.260;8.928;2023-07-28T02:13:12;5.47;;;2.15;;
1725;SDS011;41776;48.260;8.928;2023-07-28T02:15:38;4.03;;;2.25;;
1725;SDS011;41776;48.260;8.928;2023-07-28T02:18:08;4.07;;;2.45;;
1725;SDS011;41776;48.260;8.928;2023-07-28T02:20:37;3.30;;;2.42;;
1725;SDS011;41776;48.260;8.928;2023-07-28T02:23:06;4.53;;;2.78;;
1725;SDS011;41776;48.260;8.928;2023-07-28T02:25:33;5.22;;;2.95;;
1725;SDS011;41776;48.260;8.928;2023-07-28T02:28:00;8.38;;;2.53;;
1725;SDS011;41776;48.260;8.928;2023-07-28T02:30:27;6.85;;;2.65;;
1725;SDS011;41776;48.260;8.928;2023-07-28T02:32:53;3.92;;;2.45;;
1725;SDS011;41776;48.260;8.928;2023-07-28T02:35:27;6.10;;;2.38;;
1725;SDS011;41776;48.260;8.928;2023-07-28T02:37:57;3.63;;;2.67;;
1725;SDS011;41776;48.260;8.928;2023-07-28T02:40:24;3.78;;;2.78;;
1725;SDS011;41776;48.260;8.928;2023-07-28T02:42:50;3.22;;;2.40;;
1725;SDS011;41776;48.260;8.928;2023-07-28T02:45:19;6.68;;;2.80;;
1725;SDS011;41776;48.260;8.928;2023-07-28T02:47:45;3.78;;;2.33;;
1725;SDS011;41776;48.260;8.928;2023-07-28T02:50:12;5.25;;;2.88;;
1725;SDS011;41776;48.260;8.928;2023-07-28T02:52:41;6.45;;;2.80;;
1725;SDS011;41776;48.260;8.928;2023-07-28T02:55:11;3.75;;;2.20;;
1725;SDS011;41776;48.260;8.928;2023-07-28T02:57:40;3.80;;;2.67;;
1725;SDS011;41776;48.260;8.928;2023-07-28T03:00:07;6.93;;;2.63;;
1725;SDS011;41776;48.260;8.928;2023-07-28T03:02:35;2.92;;;2.08;;
1725;SDS011;41776;48.260;8.928;2023-07-28T03:05:02;6.47;;;2.70;;
1725;SDS011;41776;48.260;8.928;2023-07-28T03:07:29;3.47;;;2.20;;
1725;SDS011;41776;48.260;8.928;2023-07-28T03:09:59;7.40;;;2.60;;
1725;SDS011;41776;48.260;8.928;2023-07-28T03:12:26;3.60;;;2.45;;
1725;SDS011;41776;48.260;8.928;2023-07-28T03:14:55;3.63;;;2.20;;
1725;SDS011;41776;48.260;8.928;2023-07-28T03:17:24;3.58;;;2.38;;
1725;SDS011;41776;48.260;8.928;2023-07-28T03:19:52;8.77;;;2.35;;
1725;SDS011;41776;48.260;8.928;2023-07-28T03:22:20;4.88;;;2.67;;
1725;SDS011;41776;48.260;8.928;2023-07-28T03:24:49;4.25;;;2.40;;
1725;SDS011;41776;48.260;8.928;2023-07-28T03:27:17;3.70;;;2.50;;
1725;SDS011;41776;48.260;8.928;2023-07-28T03:29:44;3.88;;;2.00;;
1725;SDS011;41776;48.260;8.928;2023-07-28T03:32:11;4.68;;;2.38;;
1725;SDS011;41776;48.260;8.928;2023-07-28T03:34:37;4.38;;;2.63;;
1725;SDS011;41776;48.260;8.928;2023-07-28T03:37:04;5.32;;;2.83;;
1725;SDS011;41776;48.260;8.928;2023-07-28T03:39:33;4.18;;;2.60;;
1725;SDS011;41776;48.260;8.928;2023-07-28T03:42:01;4.72;;;2.58;;
1725;SDS011;41776;48.260;8.928;2023-07-28T03:44:29;4.13;;;2.47;;
1725;SDS011;41776;48.260;8.928;2023-07-28T03:47:00;3.53;;;2.35;;
1725;SDS011;41776;48.260;8.928;2023-07-28T03:49:27;3.72;;;2.70;;
1725;SDS011;41776;48.260;8.928;2023-07-28T03:51:59;6.65;;;2.70;;
1725;SDS011;41776;48.260;8.928;2023-07-28T03:54:26;4.13;;;2.65;;
1725;SDS011;41776;48.260;8.928;2023-07-28T03:56:52;3.50;;;2.67;;
1725;SDS011;41776;48.260;8.928;2023-07-28T03:59:21;3.70;;;2.80;;
1725;SDS011;41776;48.260;8.928;2023-07-28T04:01:52;3.75;;;2.75;;
1725;SDS011;41776;48.260;8.928;2023-07-28T04:04:18;3.67;;;2.65;;
1725;SDS011;41776;48.260;8.928;2023-07-28T04:06:45;5.13;;;2.95;;
1725;SDS011;41776;48.260;8.928;2023-07-28T04:09:15;5.28;;;3.00;;
1725;SDS011;41776;48.260;8.928;2023-07-28T04:11:45;5.88;;;3.20;;
1725;SDS011;41776;48.260;8.928;2023-07-28T04:14:11;4.15;;;2.80;;
1725;SDS011;41776;48.260;8.928;2023-07-28T04:16:39;7.18;;;2.92;;
1725;SDS011;41776;48.260;8.928;2023-07-28T04:19:10;4.43;;;2.75;;
1725;SDS011;41776;48.260;8.928;2023-07-28T04:21:37;7.57;;;2.80;;
1725;SDS011;41776;48.260;8.928;2023-07-28T04:24:05;3.97;;;2.80;;
1725;SDS011;41776;48.260;8.928;2023-07-28T04:26:35;4.68;;;3.38;;
1725;SDS011;41776;48.260;8.928;2023-07-28T04:29:02;6.07;;;3.20;;
1725;SDS011;41776;48.260;8.928;2023-07-28T04:31:30;5.72;;;2.88;;
1725;SDS011;41776;48.260;8.928;2023-07-28T04:33:57;4.32;;;2.80;;
1725;SDS011;41776;48.260;8.928;2023-07-28T04:36:25;7.15;;;2.90;;
1725;SDS011;41776;48.260;8.928;2023-07-28T04:38:51;4.00;;;2.70;;
1725;SDS011;41776;48.260;8.928;2023-07-28T04:41:18;4.63;;;2.70;;
1725;SDS011;41776;48.260;8.928;2023-07-28T04:43:44;8.52;;;3.42;;
1725;SDS011;41776;48.260;8.928;2023-07-28T04:46:13;7.70;;;3.08;;
1725;SDS011;41776;48.260;8.928;2023-07-28T04:48:40;7.22;;;2.70;;
1725;SDS011;41776;48.260;8.928;2023-07-28T04:51:06;8.75;;;2.80;;
1725;SDS011;41776;48.260;8.928;2023-07-28T04:53:37;6.55;;;2.47;;
1725;SDS011;41776;48.260;8.928;2023-07-28T04:56:04;4.60;;;2.50;;
1725;SDS011;41776;48.260;8.928;2023-07-28T04:58:30;4.57;;;2.78;;
1725;SDS011;41776;48.260;8.928;2023-07-28T05:00:59;8.07;;;2.60;;
1725;SDS011;41776;48.260;8.928;2023-07-28T05:03:36;4.90;;;2.60;;
1725;SDS011;41776;48.260;8.928;2023-07-28T05:06:05;3.97;;;2.55;;
1725;SDS011;41776;48.260;8.928;2023-07-28T05:08:32;3.15;;;2.30;;
1725;SDS011;41776;48.260;8.928;2023-07-28T05:11:00;4.13;;;2.60;;
1725;SDS011;41776;48.260;8.928;2023-07-28T05:13:29;4.43;;;2.20;;
1725;SDS011;41776;48.260;8.928;2023-07-28T05:15:58;5.03;;;2.72;;
1725;SDS011;41776;48.260;8.928;2023-07-28T05:18:24;3.28;;;2.42;;
1725;SDS011;41776;48.260;8.928;2023-07-28T05:20:59;2.47;;;2.10;;
1725;SDS011;41776;48.260;8.928;2023-07-28T05:23:25;4.53;;;2.10;;
1725;SDS011;41776;48.260;8.928;2023-07-28T05:25:52;5.15;;;2.15;;
1725;SDS011;41776;48.260;8.928;2023-07-28T05:28:20;3.22;;;2.25;;
1725;SDS011;41776;48.260;8.928;2023-07-28T05:30:49;5.50;;;2.28;;
1725;SDS011;41776;48.260;8.928;2023-07-28T05:33:16;3.50;;;1.67;;
1725;SDS011;41776;48.260;8.928;2023-07-28T05:35:43;2.75;;;1.90;;
1725;SDS011;41776;48.260;8.928;2023-07-28T05:38:09;3.45;;;2.20;;
1725;SDS011;41776;48.260;8.928;2023-07-28T05:40:37;3.03;;;2.20;;
1725;SDS011;41776;48.260;8.928;2023-07-28T05:43:05;3.03;;;2.28;;
1725;SDS011;41776;48.260;8.928;2023-07-28T05:45:33;3.83;;;2.10;;
1725;SDS011;41776;48.260;8.928;2023-07-28T05:48:03;4.32;;;2.28;;
1725;SDS011;41776;48.260;8.928;2023-07-28T05:50:30;3.83;;;2.17;;
1725;SDS011;41776;48.260;8.928;2023-07-28T05:52:59;6.97;;;2.00;;
1725;SDS011;41776;48.260;8.928;2023-07-28T05:55:26;3.75;;;2.28;;
1725;SDS011;41776;48.260;8.928;2023-07-28T05:57:52;4.57;;;2.10;;
1725;SDS011;41776;48.260;8.928;2023-07-28T06:00:24;3.58;;;2.05;;
1725;SDS011;41776;48.260;8.928;2023-07-28T06:02:52;3.15;;;1.88;;
1725;SDS011;41776;48.260;8.928;2023-07-28T06:05:33;3.60;;;2.10;;
1725;SDS011;41776;48.260;8.928;2023-07-28T06:08:00;3.03;;;1.95;;
1725;SDS011;41776;48.260;8.928;2023-07-28T06:10:27;2.28;;;1.73;;
1725;SDS011;41776;48.260;8.928;2023-07-28T06:12:55;2.72;;;1.90;;
1725;SDS011;41776;48.260;8.928;2023-07-28T06:15:21;3.50;;;2.10;;
1725;SDS011;41776;48.260;8.928;2023-07-28T06:17:50;5.18;;;2.17;;
1725;SDS011;41776;48.260;8.928;2023-07-28T06:20:20;6.05;;;2.08;;
1725;SDS011;41776;48.260;8.928;2023-07-28T06:22:47;4.15;;;1.98;;
1725;SDS011;41776;48.260;8.928;2023-07-28T06:25:29;3.40;;;1.85;;
1725;SDS011;41776;48.260;8.928;2023-07-28T06:28:01;4.72;;;2.10;;
1725;SDS011;41776;48.260;8.928;2023-07-28T06:30:27;4.05;;;2.08;;
1725;SDS011;41776;48.260;8.928;2023-07-28T06:32:55;3.28;;;1.98;;
1725;SDS011;41776;48.260;8.928;2023-07-28T06:35:25;3.15;;;1.90;;
1725;SDS011;41776;48.260;8.928;2023-07-28T06:37:54;3.55;;;2.13;;
1725;SDS011;41776;48.260;8.928;2023-07-28T06:40:21;2.65;;;1.88;;
1725;SDS011;41776;48.260;8.928;2023-07-28T06:42:47;2.80;;;1.88;;
1725;SDS011;41776;48.260;8.928;2023-07-28T06:45:16;2.95;;;2.00;;
1725;SDS011;41776;48.260;8.928;2023-07-28T06:47:45;3.50;;;2.00;;
1725;SDS011;41776;48.260;8.928;2023-07-28T06:50:14;3.50;;;1.95;;
1725;SDS011;41776;48.260;8.928;2023-07-28T06:52:42;2.92;;;1.67;;
1725;SDS011;41776;48.260;8.928;2023-07-28T06:55:11;2.38;;;1.60;;
1725;SDS011;41776;48.260;8.928;2023-07-28T06:57:37;2.15;;;1.50;;
1725;SDS011;41776;48.260;8.928;2023-07-28T07:00:04;2.70;;;1.55;;
1725;SDS011;41776;48.260;8.928;2023-07-28T07:02:34;2.55;;;1.60;;
1725;SDS011;41776;48.260;8.928;2023-07-28T07:05:00;2.05;;;1.58;;
1725;SDS011;41776;48.260;8.928;2023-07-28T07:07:27;3.13;;;1.85;;
1725;SDS011;41776;48.260;8.928;2023-07-28T07:09:58;1.85;;;1.40;;
1725;SDS011;41776;48.260;8.928;2023-07-28T07:12:24;2.70;;;1.60;;
1725;SDS011;41776;48.260;8.928;2023-07-28T07:14:54;3.60;;;1.73;;
1725;SDS011;41776;48.260;8.928;2023-07-28T07:17:26;2.80;;;1.65;;
1725;SDS011;41776;48.260;8.928;2023-07-28T07:19:53;2.33;;;1.42;;
1725;SDS011;41776;48.260;8.928;2023-07-28T07:22:22;2.85;;;1.45;;
1725;SDS011;41776;48.260;8.928;2023-07-28T07:24:48;2.17;;;1.70;;
1725;SDS011;41776;48.260;8.928;2023-07-28T07:27:16;2.70;;;1.60;;
1725;SDS011;41776;48.260;8.928;2023-07-28T07:29:51;2.85;;;1.80;;
1725;SDS011;41776;48.260;8.928;2023-07-28T07:32:18;2.85;;;1.63;;
1725;SDS011;41776;48.260;8.928;2023-07-28T07:34:47;3.95;;;1.90;;
1725;SDS011;41776;48.260;8.928;2023-07-28T07:37:15;3.63;;;1.20;;
1725;SDS011;41776;48.260;8.928;2023-07-28T07:39:42;2.22;;;1.58;;
1725;SDS011;41776;48.260;8.928;2023-07-28T07:42:09;3.60;;;1.80;;
1725;SDS011;41776;48.260;8.928;2023-07-28T07:44:43;3.65;;;1.73;;
1725;SDS011;41776;48.260;8.928;2023-07-28T07:47:12;2.75;;;1.60;;
1725;SDS011;41776;48.260;8.928;2023-07-28T07:49:40;2.08;;;1.40;;
1725;SDS011;41776;48.260;8.928;2023-07-28T07:52:07;3.28;;;1.75;;
1725;SDS011;41776;48.260;8.928;2023-07-28T07:54:36;2.22;;;1.70;;
1725;SDS011;41776;48.260;8.928;2023-07-28T07:57:06;3.00;;;1.65;;
1725;SDS011;41776;48.260;8.928;2023-07-28T07:59:35;3.03;;;1.95;;
1725;SDS011;41776;48.260;8.928;2023-07-28T08:02:03;8.02;;;2.08;;
1725;SDS011;41776;48.260;8.928;2023-07-28T08:04:34;3.10;;;1.80;;
1725;SDS011;41776;48.260;8.928;2023-07-28T08:07:01;4.65;;;1.65;;
1725;SDS011;41776;48.260;8.928;2023-07-28T08:09:32;6.30;;;1.60;;
1725;SDS011;41776;48.260;8.928;2023-07-28T08:11:59;3.88;;;1.50;;
1725;SDS011;41776;48.260;8.928;2023-07-28T08:14:28;2.85;;;1.48;;
1725;SDS011;41776;48.260;8.928;2023-07-28T08:16:54;2.72;;;1.60;;
1725;SDS011;41776;48.260;8.928;2023-07-28T08:19:22;2.80;;;1.55;;
1725;SDS011;41776;48.260;8.928;2023-07-28T08:21:52;2.22;;;1.60;;
1725;SDS011;41776;48.260;8.928;2023-07-28T08:24:22;2.65;;;1.60;;
1725;SDS011;41776;48.260;8.928;2023-07-28T08:26:48;2.38;;;1.55;;
1725;SDS011;41776;48.260;8.928;2023-07-28T08:29:15;3.13;;;1.70;;
1725;SDS011;41776;48.260;8.928;2023-07-28T08:31:41;3.30;;;1.50;;
1725;SDS011;41776;48.260;8.928;2023-07-28T08:34:10;2.95;;;1.55;;
1725;SDS011;41776;48.260;8.928;2023-07-28T08:36:38;5.03;;;1.63;;
1725;SDS011;41776;48.260;8.928;2023-07-28T08:39:05;3.00;;;1.85;;
1725;SDS011;41776;48.260;8.928;2023-07-28T08:41:34;3.58;;;1.83;;
1725;SDS011;41776;48.260;8.928;2023-07-28T08:44:01;6.50;;;1.60;;
1725;SDS011;41776;48.260;8.928;2023-07-28T08:46:31;3.83;;;1.92;;
1725;SDS011;41776;48.260;8.928;2023-07-28T08:49:02;2.97;;;1.70;;
1725;SDS011;41776;48.260;8.928;2023-07-28T08:51:30;2.88;;;1.60;;
1725;SDS011;41776;48.260;8.928;2023-07-28T08:53:58;2.92;;;1.83;;
1725;SDS011;41776;48.260;8.928;2023-07-28T08:56:25;2.83;;;1.35;;
1725;SDS011;41776;48.260;8.928;2023-07-28T08:58:57;5.38;;;1.85;;
1725;SDS011;41776;48.260;8.928;2023-07-28T09:01:24;3.35;;;1.75;;
1725;SDS011;41776;48.260;8.928;2023-07-28T09:03:51;3.42;;;1.70;;
1725;SDS011;41776;48.260;8.928;2023-07-28T09:06:19;2.10;;;1.40;;
1725;SDS011;41776;48.260;8.928;2023-07-28T09:08:58;5.03;;;2.00;;
1725;SDS011;41776;48.260;8.928;2023-07-28T09:11:25;3.05;;;1.65;;
1725;SDS011;41776;48.260;8.928;2023-07-28T09:13:55;2.92;;;1.90;;
1725;SDS011;41776;48.260;8.928;2023-07-28T09:16:24;2.90;;;1.80;;
1725;SDS011;41776;48.260;8.928;2023-07-28T09:18:51;2.55;;;1.65;;
1725;SDS011;41776;48.260;8.928;2023-07-28T09:21:18;2.38;;;1.48;;
1725;SDS011;41776;48.260;8.928;2023-07-28T09:23:46;3.78;;;1.45;;
1725;SDS011;41776;48.260;8.928;2023-07-28T09:26:14;2.00;;;1.50;;
1725;SDS011;41776;48.260;8.928;2023-07-28T09:28:42;2.60;;;1.67;;
1725;SDS011;41776;48.260;8.928;2023-07-28T09:31:09;3.13;;;1.58;;
1725;SDS011;41776;48.260;8.928;2023-07-28T09:33:37;3.35;;;1.75;;
1725;SDS011;41776;48.260;8.928;2023-07-28T09:36:12;2.78;;;1.42;;
1725;SDS011;41776;48.260;8.928;2023-07-28T09:38:41;2.22;;;1.60;;
1725;SDS011;41776;48.260;8.928;2023-07-28T09:41:08;2.42;;;1.50;;
1725;SDS011;41776;48.260;8.928;2023-07-28T09:43:43;2.10;;;1.48;;
1725;SDS011;41776;48.260;8.928;2023-07-28T09:46:14;2.47;;;1.70;;
1725;SDS011;41776;48.260;8.928;2023-07-28T09:48:48;4.13;;;1.90;;
1725;SDS011;41776;48.260;8.928;2023-07-28T09:51:18;2.38;;;1.60;;
1725;SDS011;41776;48.260;8.928;2023-07-28T09:53:53;3.05;;;1.80;;
1725;SDS011;41776;48.260;8.928;2023-07-28T09:56:22;2.55;;;1.63;;
1725;SDS011;41776;48.260;8.928;2023-07-28T09:58:55;7.53;;;1.58;;
1725;SDS011;41776;48.260;8.928;2023-07-28T10:01:25;2.22;;;1.35;;
1725;SDS011;41776;48.260;8.928;2023-07-28T10:03:57;4.40;;;1.80;;
1725;SDS011;41776;48.260;8.928;2023-07-28T10:06:27;2.30;;;1.50;;
1725;SDS011;41776;48.260;8.928;2023-07-28T10:08:55;2.78;;;1.60;;
1725;SDS011;41776;48.260;8.928;2023-07-28T10:11:24;1.90;;;1.30;;
1725;SDS011;41776;48.260;8.928;2023-07-28T10:13:53;3.20;;;1.90;;
1725;SDS011;41776;48.260;8.928;2023-07-28T10:16:31;3.25;;;1.52;;
1725;SDS011;41776;48.260;8.928;2023-07-28T10:19:04;5.10;;;1.60;;
1725;SDS011;41776;48.260;8.928;2023-07-28T10:21:40;2.30;;;1.58;;
1725;SDS011;41776;48.260;8.928;2023-07-28T10:24:07;4.75;;;1.90;;
1725;SDS011;41776;48.260;8.928;2023-07-28T10:26:40;1.90;;;1.38;;
1725;SDS011;41776;48.260;8.928;2023-07-28T10:29:12;2.92;;;1.70;;
1725;SDS011;41776;48.260;8.928;2023-07-28T10:31:49;1.70;;;1.30;;
1725;SDS011;41776;48.260;8.928;2023-07-28T10:34:19;2.15;;;1.35;;
1725;SDS011;41776;48.260;8.928;2023-07-28T10:36:57;2.13;;;1.50;;
1725;SDS011;41776;48.260;8.928;2023-07-28T10:39:26;2.10;;;1.52;;
1725;SDS011;41776;48.260;8.928;2023-07-28T10:42:01;4.82;;;1.70;;
1725;SDS011;41776;48.260;8.928;2023-07-28T10:44:33;2.83;;;1.67;;
1725;SDS011;41776;48.260;8.928;2023-07-28T10:47:01;3.15;;;1.67;;
1725;SDS011;41776;48.260;8.928;2023-07-28T10:49:32;1.73;;;1.27;;
1725;SDS011;41776;48.260;8.928;2023-07-28T10:52:00;3.45;;;1.63;;
1725;SDS011;41776;48.260;8.928;2023-07-28T10:54:26;3.33;;;1.80;;
1725;SDS011;41776;48.260;8.928;2023-07-28T10:56:53;2.05;;;1.50;;
1725;SDS011;41776;48.260;8.928;2023-07-28T10:59:23;2.80;;;1.80;;
1725;SDS011;41776;48.260;8.928;2023-07-28T11:01:51;1.85;;;1.30;;
1725;SDS011;41776;48.260;8.928;2023-07-28T11:04:20;2.67;;;1.70;;
1725;SDS011;41776;48.260;8.928;2023-07-28T11:06:49;3.92;;;1.77;;
1725;SDS011;41776;48.260;8.928;2023-07-28T11:09:17;2.40;;;1.60;;
1725;SDS011;41776;48.260;8.928;2023-07-28T11:11:50;2.92;;;1.88;;
1725;SDS011;41776;48.260;8.928;2023-07-28T11:14:18;2.53;;;1.80;;
1725;SDS011;41776;48.260;8.928;2023-07-28T11:16:53;3.83;;;1.80;;
1725;SDS011;41776;48.260;8.928;2023-07-28T11:19:19;4.28;;;2.03;;
1725;SDS011;41776;48.260;8.928;2023-07-28T11:21:49;3.53;;;1.58;;
1725;SDS011;41776;48.260;8.928;2023-07-28T11:24:22;3.80;;;1.98;;
1725;SDS011;41776;48.260;8.928;2023-07-28T11:26:49;2.95;;;1.80;;
1725;SDS011;41776;48.260;8.928;2023-07-28T11:29:16;4.22;;;1.90;;
1725;SDS011;41776;48.260;8.928;2023-07-28T11:31:44;4.65;;;2.03;;
1725;SDS011;41776;48.260;8.928;2023-07-28T11:34:14;3.05;;;1.92;;
1725;SDS011;41776;48.260;8.928;2023-07-28T11:36:40;2.53;;;1.77;;
1725;SDS011;41776;48.260;8.928;2023-07-28T11:39:07;3.33;;;2.05;;
1725;SDS011;41776;48.260;8.928;2023-07-28T11:41:35;5.45;;;1.98;;
1725;SDS011;41776;48.260;8.928;2023-07-28T11:44:03;2.83;;;1.90;;
1725;SDS011;41776;48.260;8.928;2023-07-28T11:46:34;2.95;;;1.77;;
1725;SDS011;41776;48.260;8.928;2023-07-28T11:49:10;2.33;;;1.50;;
1725;SDS011;41776;48.260;8.928;2023-07-28T11:51:40;5.45;;;1.95;;
1725;SDS011;41776;48.260;8.928;2023-07-28T11:54:10;3.45;;;2.20;;
1725;SDS011;41776;48.260;8.928;2023-07-28T11:56:37;2.30;;;1.60;;
1725;SDS011;41776;48.260;8.928;2023-07-28T11:59:03;3.10;;;1.80;;
1725;SDS011;41776;48.260;8.928;2023-07-28T12:01:30;2.55;;;1.92;;
1725;SDS011;41776;48.260;8.928;2023-07-28T12:03:57;3.97;;;1.80;;
1725;SDS011;41776;48.260;8.928;2023-07-28T12:06:25;3.20;;;1.90;;
1725;SDS011;41776;48.260;8.928;2023-07-28T12:09:03;2.97;;;1.75;;
1725;SDS011;41776;48.260;8.928;2023-07-28T12:11:30;3.85;;;1.73;;
1725;SDS011;41776;48.260;8.928;2023-07-28T12:13:57;3.08;;;1.90;;
1725;SDS011;41776;48.260;8.928;2023-07-28T12:16:31;3.53;;;1.67;;
1725;SDS011;41776;48.260;8.928;2023-07-28T12:18:58;3.05;;;1.90;;
1725;SDS011;41776;48.260;8.928;2023-07-28T12:21:24;3.53;;;1.70;;
1725;SDS011;41776;48.260;8.928;2023-07-28T12:23:51;5.93;;;1.85;;
1725;SDS011;41776;48.260;8.928;2023-07-28T12:26:19;2.45;;;1.65;;
1725;SDS011;41776;48.260;8.928;2023-07-28T12:28:45;2.30;;;1.63;;
1725;SDS011;41776;48.260;8.928;2023-07-28T12:31:11;2.28;;;1.70;;
1725;SDS011;41776;48.260;8.928;2023-07-28T12:33:38;2.35;;;1.52;;
1725;SDS011;41776;48.260;8.928;2023-07-28T12:36:05;2.75;;;2.05;;
1725;SDS011;41776;48.260;8.928;2023-07-28T12:38:32;4.50;;;1.50;;
1725;SDS011;41776;48.260;8.928;2023-07-28T12:40:58;1.88;;;1.58;;
1725;SDS011;41776;48.260;8.928;2023-07-28T12:43:26;1.83;;;1.63;;
1725;SDS011;41776;48.260;8.928;2023-07-28T12:45:54;3.58;;;2.00;;
1725;SDS011;41776;48.260;8.928;2023-07-28T12:48:21;6.75;;;1.73;;
1725;SDS011;41776;48.260;8.928;2023-07-28T12:50:47;3.28;;;1.73;;
1725;SDS011;41776;48.260;8.928;2023-07-28T12:53:14;2.55;;;1.73;;
1725;SDS011;41776;48.260;8.928;2023-07-28T12:55:42;2.75;;;1.70;;
1725;SDS011;41776;48.260;8.928;2023-07-28T12:58:09;2.38;;;1.65;;
1725;SDS011;41776;48.260;8.928;2023-07-28T13:00:36;2.97;;;1.80;;
1725;SDS011;41776;48.260;8.928;2023-07-28T13:03:06;2.75;;;2.10;;
1725;SDS011;41776;48.260;8.928;2023-07-28T13:05:32;4.03;;;2.00;;
1725;SDS011;41776;48.260;8.928;2023-07-28T13:07:59;4.15;;;2.03;;
1725;SDS011;41776;48.260;8.928;2023-07-28T13:10:25;4.05;;;2.00;;
1725;SDS011;41776;48.260;8.928;2023-07-28T13:12:51;2.60;;;1.88;;
1725;SDS011;41776;48.260;8.928;2023-07-28T13:15:18;4.07;;;2.10;;
1725;SDS011;41776;48.260;8.928;2023-07-28T13:17:46;3.65;;;2.00;;
1725;SDS011;41776;48.260;8.928;2023-07-28T13:20:13;2.90;;;1.83;;
1725;SDS011;41776;48.260;8.928;2023-07-28T13:22:40;2.22;;;1.60;;
1725;SDS011;41776;48.260;8.928;2023-07-28T13:25:06;6.13;;;2.05;;
1725;SDS011;41776;48.260;8.928;2023-07-28T13:27:33;5.35;;;1.85;;
1725;SDS011;41776;48.260;8.928;2023-07-28T13:30:00;5.10;;;2.10;;
1725;SDS011;41776;48.260;8.928;2023-07-28T13:32:27;2.72;;;1.90;;
1725;SDS011;41776;48.260;8.928;2023-07-28T13:34:55;3.28;;;1.92;;
1725;SDS011;41776;48.260;8.928;2023-07-28T13:37:22;4.45;;;1.85;;
1725;SDS011;41776;48.260;8.928;2023-07-28T13:39:49;4.97;;;2.75;;
1725;SDS011;41776;48.260;8.928;2023-07-28T13:42:16;3.25;;;2.08;;
1725;SDS011;41776;48.260;8.928;2023-07-28T13:44:43;3.97;;;1.90;;
1725;SDS011;41776;48.260;8.928;2023-07-28T13:47:10;4.47;;;1.85;;
1725;SDS011;41776;48.260;8.928;2023-07-28T13:49:36;2.97;;;2.00;;
1725;SDS011;41776;48.260;8.928;2023-07-28T13:52:05;3.15;;;2.20;;
1725;SDS011;41776;48.260;8.928;2023-07-28T13:54:32;2.85;;;1.80;;
1725;SDS011;41776;48.260;8.928;2023-07-28T13:56:58;5.65;;;2.20;;
1725;SDS011;41776;48.260;8.928;2023-07-28T13:59:25;2.15;;;1.70;;
1725;SDS011;41776;48.260;8.928;2023-07-28T14:01:51;2.85;;;2.05;;
1725;SDS011;41776;48.260;8.928;2023-07-28T14:04:18;3.10;;;1.92;;
1725;SDS011;41776;48.260;8.928;2023-07-28T14:06:44;4.20;;;2.20;;
1725;SDS011;41776;48.260;8.928;2023-07-28T14:09:12;3.00;;;2.28;;
1725;SDS011;41776;48.260;8.928;2023-07-28T14:11:39;2.60;;;1.75;;
1725;SDS011;41776;48.260;8.928;2023-07-28T14:14:05;3.33;;;2.15;;
1725;SDS011;41776;48.260;8.928;2023-07-28T14:16:34;3.10;;;2.00;;
1725;SDS011;41776;48.260;8.928;2023-07-28T14:19:01;5.03;;;2.38;;
1725;SDS011;41776;48.260;8.928;2023-07-28T14:21:28;3.28;;;2.00;;
1725;SDS011;41776;48.260;8.928;2023-07-28T14:23:54;2.92;;;1.90;;
1725;SDS011;41776;48.260;8.928;2023-07-28T14:26:22;4.78;;;1.73;;
1725;SDS011;41776;48.260;8.928;2023-07-28T14:28:48;3.67;;;1.95;;
1725;SDS011;41776;48.260;8.928;2023-07-28T14:31:15;2.47;;;1.80;;
1725;SDS011;41776;48.260;8.928;2023-07-28T14:33:41;2.40;;;1.77;;
1725;SDS011;41776;48.260;8.928;2023-07-28T14:36:08;2.28;;;1.77;;
1725;SDS011;41776;48.260;8.928;2023-07-28T14:38:34;4.45;;;2.30;;
1725;SDS011;41776;48.260;8.928;2023-07-28T14:41:01;2.63;;;1.90;;
1725;SDS011;41776;48.260;8.928;2023-07-28T14:43:29;3.10;;;1.75;;
1725;SDS011;41776;48.260;8.928;2023-07-28T14:45:55;3.35;;;2.03;;
1725;SDS011;41776;48.260;8.928;2023-07-28T14:48:29;5.38;;;2.20;;
1725;SDS011;41776;48.260;8.928;2023-07-28T14:50:56;3.53;;;1.70;;
1725;SDS011;41776;48.260;8.928;2023-07-28T14:53:29;3.33;;;2.13;;
1725;SDS011;41776;48.260;8.928;2023-07-28T14:56:00;2.65;;;1.65;;
1725;SDS011;41776;48.260;8.928;2023-07-28T14:58:29;2.30;;;1.77;;
1725;SDS011;41776;48.260;8.928;2023-07-28T15:00:56;3.63;;;2.10;;
1725;SDS011;41776;48.260;8.928;2023-07-28T15:03:25;3.90;;;2.13;;
1725;SDS011;41776;48.260;8.928;2023-07-28T15:05:52;4.68;;;1.98;;
1725;SDS011;41776;48.260;8.928;2023-07-28T15:08:22;3.38;;;1.92;;
1725;SDS011;41776;48.260;8.928;2023-07-28T15:10:49;2.28;;;1.80;;